Time;durP1;ratioP1;P1;durP2;ratioP2;P2;SDS_P1;SDS_P2;PMS_P1;PMS_P2;Temp;Humidity;BMP_temperature;BMP_pressure;BME280_temperature;BME280_humidity;BME280_pressure;Samples;Min_cycle;Max_cycle;Signal;HPM_P1;HPM_P2
2020/12/14 00:02:08;;;;;;;32.05;21.85;;;0.90;99.90;;;;;;5049402;28;20045;-75
2020/12/14 00:04:38;;;;;;;35.20;21.33;;;0.80;99.90;;;;;;5050084;28;20045;-74
2020/12/14 00:07:08;;;;;;;32.90;21.10;;;0.80;99.90;;;;;;5048435;28;20436;-75
2020/12/14 00:09:38;;;;;;;30.90;20.98;;;0.70;99.90;;;;;;5048498;28;20124;-75
2020/12/14 00:12:05;;;;;;;35.78;22.90;;;0.70;99.90;;;;;;5047859;28;20041;-75
2020/12/14 00:14:31;;;;;;;42.15;24.48;;;0.70;99.90;;;;;;5049314;28;20056;-74
2020/12/14 00:16:58;;;;;;;41.60;23.95;;;0.80;99.90;;;;;;5050553;28;20120;-74
2020/12/14 00:19:24;;;;;;;34.90;22.08;;;0.70;99.90;;;;;;5048856;28;20053;-74
2020/12/14 00:21:57;;;;;;;34.55;21.73;;;0.70;99.90;;;;;;5049895;28;20073;-75
2020/12/14 00:24:24;;;;;;;39.97;22.42;;;0.60;99.90;;;;;;5046712;28;20048;-74
2020/12/14 00:26:51;;;;;;;38.50;22.40;;;0.50;99.90;;;;;;5043066;28;20499;-75
2020/12/14 00:29:19;;;;;;;39.92;23.63;;;0.60;99.90;;;;;;5049594;28;20049;-75
2020/12/14 00:31:50;;;;;;;44.28;24.80;;;0.80;99.90;;;;;;5049610;28;20041;-75
2020/12/14 00:34:17;;;;;;;35.33;22.77;;;0.80;99.90;;;;;;5048269;28;20111;-74
2020/12/14 00:37:01;;;;;;;35.20;20.65;;;0.80;99.90;;;;;;5042981;28;20107;-77
2020/12/14 00:39:28;;;;;;;35.90;21.30;;;1.00;99.90;;;;;;5049113;28;20049;-74
2020/12/14 00:41:54;;;;;;;35.00;20.65;;;1.20;99.90;;;;;;5048785;28;20119;-74
2020/12/14 00:44:21;;;;;;;33.17;20.65;;;1.30;99.90;;;;;;5049437;28;20400;-74
2020/12/14 00:46:47;;;;;;;36.47;20.60;;;1.40;99.90;;;;;;5047536;28;20140;-74
2020/12/14 00:49:14;;;;;;;36.65;21.60;;;1.50;99.90;;;;;;5048300;28;20091;-74
2020/12/14 00:51:40;;;;;;;31.85;19.95;;;1.50;99.90;;;;;;5047813;28;20083;-75
2020/12/14 00:54:07;;;;;;;38.17;20.23;;;1.50;99.90;;;;;;5046050;28;20056;-74
2020/12/14 00:56:35;;;;;;;33.03;20.48;;;1.50;99.90;;;;;;5043768;28;20063;-74
2020/12/14 00:59:02;;;;;;;30.38;18.77;;;1.50;99.90;;;;;;5049412;28;20045;-75
2020/12/14 01:01:28;;;;;;;34.10;18.85;;;1.50;99.90;;;;;;5049779;28;20079;-74
2020/12/14 01:03:55;;;;;;;32.05;18.23;;;1.30;99.90;;;;;;5049126;28;20128;-77
2020/12/14 01:06:22;;;;;;;30.58;18.33;;;1.30;99.90;;;;;;5048296;28;20094;-74
2020/12/14 01:08:48;;;;;;;29.15;16.88;;;1.20;99.90;;;;;;5048979;28;20128;-74
2020/12/14 01:11:14;;;;;;;30.35;18.13;;;1.10;99.90;;;;;;5047531;28;20484;-75
2020/12/14 01:13:41;;;;;;;26.73;17.27;;;1.00;99.90;;;;;;5047828;28;20077;-74
2020/12/14 01:16:10;;;;;;;25.75;16.52;;;1.00;99.90;;;;;;5046932;28;20047;-74
2020/12/14 01:18:37;;;;;;;30.65;17.17;;;0.80;99.90;;;;;;5047448;28;20080;-74
2020/12/14 01:21:04;;;;;;;24.80;16.42;;;0.70;99.90;;;;;;5046916;28;20132;-75
2020/12/14 01:23:31;;;;;;;23.05;15.73;;;0.60;99.90;;;;;;5048515;28;20101;-75
2020/12/14 01:25:57;;;;;;;28.15;16.45;;;0.50;99.90;;;;;;5047278;28;20426;-74
2020/12/14 01:28:24;;;;;;;23.05;14.82;;;0.40;99.90;;;;;;5045523;28;20107;-74
2020/12/14 01:30:50;;;;;;;28.27;16.27;;;0.30;99.90;;;;;;5048796;28;20564;-73
2020/12/14 01:33:17;;;;;;;25.65;15.32;;;0.20;99.90;;;;;;5048989;28;20148;-74
2020/12/14 01:35:43;;;;;;;25.85;16.23;;;0.20;99.90;;;;;;5048209;28;20057;-74
2020/12/14 01:38:10;;;;;;;26.48;16.63;;;0.20;99.90;;;;;;5046892;28;20045;-74
2020/12/14 01:40:36;;;;;;;31.65;18.13;;;0.30;99.90;;;;;;5047709;28;20131;-75
2020/12/14 01:43:03;;;;;;;32.97;19.45;;;0.40;99.90;;;;;;5048963;28;20132;-74
2020/12/14 01:45:29;;;;;;;35.90;19.02;;;0.50;99.90;;;;;;5049033;28;20393;-77
2020/12/14 01:48:00;;;;;;;29.55;18.17;;;0.40;99.90;;;;;;5047606;28;20092;-75
2020/12/14 01:50:28;;;;;;;30.58;19.85;;;0.30;99.90;;;;;;5048847;28;20124;-74
2020/12/14 01:52:59;;;;;;;32.42;18.75;;;0.40;99.90;;;;;;5048846;28;20131;-74
2020/12/14 01:55:34;;;;;;;34.08;20.42;;;0.50;99.90;;;;;;5046980;28;20451;-73
2020/12/14 01:58:01;;;;;;;38.78;21.05;;;0.60;99.90;;;;;;5046139;28;20116;-76
2020/12/14 02:00:28;;;;;;;42.55;21.92;;;0.70;99.90;;;;;;5047495;28;20397;-75
2020/12/14 02:02:54;;;;;;;34.65;19.05;;;0.60;99.90;;;;;;5048868;28;20061;-73
2020/12/14 02:05:20;;;;;;;35.40;19.60;;;0.60;99.90;;;;;;5047917;28;20072;-73
2020/12/14 02:07:47;;;;;;;38.25;20.15;;;0.60;99.90;;;;;;5048208;28;20049;-73
2020/12/14 02:10:14;;;;;;;34.28;19.48;;;0.60;99.90;;;;;;5044028;28;20271;-74
2020/12/14 02:12:40;;;;;;;32.75;18.23;;;0.60;99.90;;;;;;5047608;28;20533;-73
2020/12/14 02:15:07;;;;;;;27.20;17.55;;;0.50;99.90;;;;;;5048805;28;20095;-74
2020/12/14 02:17:33;;;;;;;30.10;18.15;;;0.40;99.90;;;;;;5046688;28;20483;-73
2020/12/14 02:20:00;;;;;;;25.88;15.60;;;0.30;99.90;;;;;;5045863;28;20057;-74
2020/12/14 02:22:27;;;;;;;25.65;15.30;;;0.20;99.90;;;;;;5048447;28;20123;-73
2020/12/14 02:25:01;;;;;;;23.30;15.75;;;0.10;99.90;;;;;;5047281;28;20134;-74
2020/12/14 02:27:30;;;;;;;26.00;15.82;;;0.00;99.90;;;;;;5046340;28;20095;-74
2020/12/14 02:29:56;;;;;;;26.13;16.20;;;-0.10;99.90;;;;;;5047945;28;20106;-73
2020/12/14 02:32:29;;;;;;;34.85;18.92;;;0.00;99.90;;;;;;5048465;28;20056;-73
2020/12/14 02:34:57;;;;;;;38.05;20.83;;;0.20;99.90;;;;;;5048507;28;20132;-73
2020/12/14 02:37:26;;;;;;;40.47;21.77;;;0.20;99.90;;;;;;5048153;28;20170;-73
2020/12/14 02:39:53;;;;;;;41.03;21.98;;;0.20;99.90;;;;;;5044279;28;20190;-74
2020/12/14 02:42:22;;;;;;;40.97;23.00;;;0.20;99.90;;;;;;5051434;28;20071;-73
2020/12/14 02:44:48;;;;;;;48.90;24.77;;;0.20;99.90;;;;;;5052089;28;20106;-73
2020/12/14 02:47:16;;;;;;;50.72;25.70;;;0.20;99.90;;;;;;5051956;28;20056;-73
2020/12/14 02:49:43;;;;;;;49.95;25.52;;;0.20;99.90;;;;;;5044958;28;20044;-73
2020/12/14 02:52:10;;;;;;;39.58;22.67;;;0.20;99.90;;;;;;5051295;28;20044;-75
2020/12/14 02:54:38;;;;;;;44.42;23.63;;;0.10;99.90;;;;;;5050501;28;20084;-74
2020/12/14 02:57:05;;;;;;;47.10;22.75;;;0.20;99.90;;;;;;5051074;28;20052;-74
2020/12/14 02:59:31;;;;;;;49.50;24.40;;;0.30;99.90;;;;;;5042655;28;20109;-74
2020/12/14 03:01:58;;;;;;;43.83;22.33;;;0.40;99.90;;;;;;5050300;28;20081;-74
2020/12/14 03:04:24;;;;;;;40.50;21.73;;;0.40;99.90;;;;;;5051096;28;20041;-76
2020/12/14 03:06:52;;;;;;;39.88;21.75;;;0.50;99.90;;;;;;5048611;28;20053;-74
2020/12/14 03:09:20;;;;;;;43.47;21.25;;;0.50;99.90;;;;;;5050754;28;20103;-74
2020/12/14 03:11:48;;;;;;;40.10;20.85;;;0.50;99.90;;;;;;5050374;28;20055;-73
2020/12/14 03:14:15;;;;;;;41.30;20.30;;;0.40;99.90;;;;;;5051268;28;20131;-74
2020/12/14 03:16:53;;;;;;;38.15;20.58;;;0.40;99.90;;;;;;5050842;28;20118;-75
2020/12/14 03:19:19;;;;;;;38.47;20.17;;;0.40;99.90;;;;;;5050395;28;20856;-74
2020/12/14 03:21:46;;;;;;;40.28;22.02;;;0.40;99.90;;;;;;5050578;28;20098;-74
2020/12/14 03:24:12;;;;;;;42.67;21.48;;;0.40;99.90;;;;;;5050131;28;20041;-76
2020/12/14 03:26:39;;;;;;;38.38;21.13;;;0.40;99.90;;;;;;5048406;28;20160;-74
2020/12/14 03:29:05;;;;;;;40.95;22.10;;;0.50;99.90;;;;;;5045091;28;20080;-75
2020/12/14 03:31:32;;;;;;;40.72;22.67;;;0.40;99.90;;;;;;5049734;28;20124;-74
2020/12/14 03:34:00;;;;;;;43.58;22.35;;;0.40;99.90;;;;;;5050604;28;20049;-75
2020/12/14 03:36:26;;;;;;;42.72;23.40;;;0.40;99.90;;;;;;5046151;28;20094;-74
2020/12/14 03:38:54;;;;;;;45.67;23.30;;;0.50;99.90;;;;;;5049820;28;20087;-74
2020/12/14 03:41:23;;;;;;;43.38;22.75;;;0.60;99.90;;;;;;5047427;28;20049;-74
2020/12/14 03:43:51;;;;;;;45.70;24.58;;;0.60;99.90;;;;;;5050983;28;20049;-74
2020/12/14 03:46:25;;;;;;;45.05;24.95;;;0.70;99.90;;;;;;5038958;28;20048;-74
2020/12/14 03:48:53;;;;;;;47.17;25.83;;;0.70;99.90;;;;;;5050695;28;20484;-73
2020/12/14 03:51:21;;;;;;;43.88;25.25;;;0.70;99.90;;;;;;5049634;28;20089;-74
2020/12/14 03:53:48;;;;;;;52.15;26.42;;;0.70;99.90;;;;;;5050315;28;20044;-74
2020/12/14 03:56:18;;;;;;;52.22;26.63;;;0.80;99.90;;;;;;5035957;28;20054;-74
2020/12/14 03:58:45;;;;;;;47.00;24.52;;;0.80;99.90;;;;;;5048749;28;20219;-74
2020/12/14 04:01:12;;;;;;;51.58;27.50;;;0.80;99.90;;;;;;5048422;28;20517;-74
2020/12/14 04:03:40;;;;;;;47.75;25.33;;;0.90;99.90;;;;;;5049319;28;20044;-74
2020/12/14 04:06:07;;;;;;;46.53;26.20;;;0.90;99.90;;;;;;5040250;28;20089;-76
2020/12/14 04:08:33;;;;;;;50.08;25.02;;;0.80;99.90;;;;;;5048472;28;20053;-76
2020/12/14 04:11:03;;;;;;;45.38;24.38;;;0.80;99.90;;;;;;5045904;28;20144;-77
2020/12/14 04:13:30;;;;;;;50.67;26.73;;;0.70;99.90;;;;;;5041848;28;20053;-75
2020/12/14 04:15:56;;;;;;;49.40;26.17;;;0.60;99.90;;;;;;5048706;28;20048;-74
2020/12/14 04:18:23;;;;;;;44.72;24.92;;;0.60;99.90;;;;;;5050371;28;20052;-74
2020/12/14 04:20:49;;;;;;;46.08;25.55;;;0.50;99.90;;;;;;5049620;28;20541;-73
2020/12/14 04:23:16;;;;;;;50.28;25.95;;;0.50;99.90;;;;;;5049329;28;20052;-73
2020/12/14 04:25:42;;;;;;;58.40;28.60;;;0.50;99.90;;;;;;5040886;28;20130;-74
2020/12/14 04:28:08;;;;;;;60.85;28.52;;;0.60;99.90;;;;;;5042688;28;20446;-74
2020/12/14 04:30:35;;;;;;;64.43;28.58;;;0.70;99.90;;;;;;5042737;28;20072;-74
2020/12/14 04:33:01;;;;;;;63.65;30.13;;;0.70;99.90;;;;;;5048563;28;20139;-74
2020/12/14 04:35:28;;;;;;;55.70;27.13;;;0.70;99.90;;;;;;5043251;28;20077;-74
2020/12/14 04:37:54;;;;;;;61.80;27.13;;;0.70;99.90;;;;;;5049111;28;20041;-74
2020/12/14 04:40:21;;;;;;;64.93;27.55;;;0.70;99.90;;;;;;5040064;28;20152;-74
2020/12/14 04:42:51;;;;;;;58.35;27.92;;;0.70;99.90;;;;;;5047036;28;20177;-73
2020/12/14 04:45:18;;;;;;;58.63;26.38;;;0.70;99.90;;;;;;5044923;28;20041;-74
2020/12/14 04:47:49;;;;;;;57.67;27.02;;;0.70;99.90;;;;;;5046604;28;20045;-74
2020/12/14 04:50:15;;;;;;;63.42;27.42;;;0.60;99.90;;;;;;5048493;28;20122;-74
2020/12/14 04:52:42;;;;;;;61.95;27.75;;;0.60;99.90;;;;;;5049183;28;20583;-74
2020/12/14 04:55:11;;;;;;;56.88;27.42;;;0.50;99.90;;;;;;5045214;28;20041;-74
2020/12/14 04:57:38;;;;;;;59.67;28.25;;;0.50;99.90;;;;;;5047673;28;20111;-74
2020/12/14 05:00:08;;;;;;;55.58;26.58;;;0.50;99.90;;;;;;5047768;28;20044;-74
2020/12/14 05:02:34;;;;;;;60.97;28.23;;;0.50;99.90;;;;;;5048401;28;20163;-73
2020/12/14 05:05:01;;;;;;;65.72;30.38;;;0.60;99.90;;;;;;5045815;28;21161;-74
2020/12/14 05:07:42;;;;;;;65.15;28.30;;;0.60;99.90;;;;;;5045611;28;20112;-74
2020/12/14 05:10:09;;;;;;;62.20;28.58;;;0.60;99.90;;;;;;5048253;28;20069;-74
2020/12/14 05:12:41;;;;;;;68.38;28.95;;;0.70;99.90;;;;;;5048380;28;20076;-73
2020/12/14 05:15:26;;;;;;;62.05;30.30;;;0.70;99.90;;;;;;5048223;28;20072;-74
2020/12/14 05:18:13;;;;;;;65.28;29.52;;;0.70;99.90;;;;;;5038570;28;20156;-74
2020/12/14 05:20:55;;;;;;;65.30;29.17;;;0.70;99.90;;;;;;5047460;28;20098;-73
2020/12/14 05:23:21;;;;;;;69.55;28.88;;;0.70;99.90;;;;;;5049203;28;20064;-73
2020/12/14 05:25:47;;;;;;;64.70;27.52;;;0.80;99.90;;;;;;5038774;28;20065;-74
2020/12/14 05:28:19;;;;;;;60.88;27.40;;;0.80;99.90;;;;;;5043090;28;20134;-74
2020/12/14 05:30:50;;;;;;;63.60;28.08;;;0.90;99.90;;;;;;5047466;28;20057;-74
2020/12/14 05:33:22;;;;;;;64.38;29.33;;;0.80;99.90;;;;;;5049143;28;20045;-75
2020/12/14 05:35:48;;;;;;;65.20;28.17;;;0.80;99.90;;;;;;5039503;28;20146;-74
2020/12/14 05:38:15;;;;;;;64.07;28.40;;;0.80;99.90;;;;;;5049033;28;20102;-74
2020/12/14 05:40:44;;;;;;;64.50;28.48;;;0.70;99.90;;;;;;5035551;28;20453;-74
2020/12/14 05:43:15;;;;;;;61.67;28.15;;;0.70;99.90;;;;;;5035187;28;20154;-74
2020/12/14 05:45:42;;;;;;;65.75;29.83;;;0.80;99.90;;;;;;5037534;28;20081;-74
2020/12/14 05:48:30;;;;;;;62.42;28.60;;;0.80;99.90;;;;;;5046754;28;20044;-74
2020/12/14 05:51:02;;;;;;;73.38;31.38;;;0.90;99.90;;;;;;5048228;28;20084;-79
2020/12/14 05:53:32;;;;;;;62.53;31.15;;;1.00;99.90;;;;;;5048563;28;20048;-76
2020/12/14 05:56:00;;;;;;;64.25;31.13;;;1.10;99.90;;;;;;5033923;28;20639;-75
2020/12/14 05:58:30;;;;;;;63.97;29.85;;;1.10;99.90;;;;;;5048913;28;20053;-75
2020/12/14 06:00:58;;;;;;;63.75;29.65;;;1.10;99.90;;;;;;5043927;28;20052;-74
2020/12/14 06:03:25;;;;;;;61.70;28.52;;;1.10;99.90;;;;;;5047811;28;20126;-73
2020/12/14 06:05:58;;;;;;;63.08;28.90;;;1.00;99.90;;;;;;5044488;28;20419;-76
2020/12/14 06:08:37;;;;;;;63.15;29.00;;;1.00;99.90;;;;;;5048047;28;20055;-74
2020/12/14 06:11:04;;;;;;;65.65;29.40;;;1.00;99.90;;;;;;5045385;28;20076;-75
2020/12/14 06:13:32;;;;;;;66.72;31.10;;;1.00;99.90;;;;;;5047962;28;20088;-75
2020/12/14 06:16:02;;;;;;;63.70;27.92;;;1.00;99.90;;;;;;5051221;28;20123;-75
2020/12/14 06:18:33;;;;;;;64.78;28.98;;;1.00;99.90;;;;;;5052666;28;20160;-75
2020/12/14 06:21:01;;;;;;;65.82;30.67;;;1.10;99.90;;;;;;5050610;28;20469;-75
2020/12/14 06:23:35;;;;;;;64.88;29.15;;;1.00;99.90;;;;;;5052019;28;20491;-74
2020/12/14 06:26:06;;;;;;;69.45;31.27;;;1.00;99.90;;;;;;5050085;28;20123;-76
2020/12/14 06:28:34;;;;;;;77.38;31.58;;;1.00;99.90;;;;;;5044613;28;20077;-74
2020/12/14 06:31:01;;;;;;;71.20;31.80;;;0.90;99.90;;;;;;5050375;28;20060;-75
2020/12/14 06:33:35;;;;;;;72.57;31.15;;;1.00;99.90;;;;;;5052357;28;20087;-74
2020/12/14 06:36:21;;;;;;;69.22;32.42;;;1.00;99.90;;;;;;5050546;28;20131;-75
2020/12/14 06:38:49;;;;;;;80.63;33.47;;;1.10;99.90;;;;;;5048546;28;20068;-74
2020/12/14 06:41:20;;;;;;;73.68;33.05;;;1.10;99.90;;;;;;5044319;28;20045;-74
2020/12/14 06:43:49;;;;;;;76.97;32.72;;;1.10;99.90;;;;;;5051779;28;20071;-74
2020/12/14 06:46:35;;;;;;;73.57;33.80;;;1.10;99.90;;;;;;5049419;28;20504;-74
2020/12/14 06:49:03;;;;;;;79.78;31.17;;;1.10;99.90;;;;;;5051127;28;20128;-76
2020/12/14 06:51:49;;;;;;;80.38;34.58;;;1.10;99.90;;;;;;5048438;28;20045;-78
2020/12/14 06:54:46;;;;;;;72.38;32.83;;;1.10;99.90;;;;;;5049115;28;20152;-74
2020/12/14 06:57:14;;;;;;;82.45;35.60;;;1.10;99.90;;;;;;5040755;28;20073;-74
2020/12/14 06:59:53;;;;;;;78.18;34.47;;;1.10;99.90;;;;;;5049611;28;20049;-74
2020/12/14 07:02:42;;;;;;;81.45;34.78;;;1.10;99.90;;;;;;5048442;28;20189;-74
2020/12/14 07:05:30;;;;;;;82.35;35.22;;;1.10;99.90;;;;;;5042327;28;20053;-73
2020/12/14 07:07:58;;;;;;;80.57;36.22;;;1.10;99.90;;;;;;5039865;28;20059;-73
2020/12/14 07:10:28;;;;;;;80.93;33.72;;;1.20;99.90;;;;;;5033696;28;20133;-73
2020/12/14 07:12:57;;;;;;;75.13;34.10;;;1.20;99.90;;;;;;5037193;28;20046;-73
2020/12/14 07:15:36;;;;;;;71.25;33.65;;;1.20;99.90;;;;;;5044058;28;20087;-74
2020/12/14 07:18:04;;;;;;;71.43;32.45;;;1.20;99.90;;;;;;5048857;28;20091;-74
2020/12/14 07:20:33;;;;;;;75.90;34.00;;;1.10;99.90;;;;;;5050744;28;20049;-74
2020/12/14 07:23:07;;;;;;;68.68;32.35;;;1.10;99.90;;;;;;5050432;28;20070;-75
2020/12/14 07:25:35;;;;;;;73.75;32.25;;;1.10;99.90;;;;;;5033897;28;20057;-74
2020/12/14 07:28:03;;;;;;;73.55;33.78;;;1.10;99.90;;;;;;5035490;28;20125;-73
2020/12/14 07:30:30;;;;;;;82.78;35.42;;;1.10;99.90;;;;;;5035432;28;20044;-75
2020/12/14 07:32:59;;;;;;;99.95;40.05;;;1.00;99.90;;;;;;5047745;28;20202;-74
2020/12/14 07:35:26;;;;;;;92.90;37.70;;;1.00;99.90;;;;;;5042955;28;20049;-74
2020/12/14 07:37:53;;;;;;;72.55;33.40;;;1.10;99.90;;;;;;5045677;28;20045;-73
2020/12/14 07:40:20;;;;;;;73.20;35.50;;;1.20;99.90;;;;;;5042173;28;20045;-74
2020/12/14 07:42:47;;;;;;;74.85;34.88;;;1.30;99.90;;;;;;5045523;28;20424;-74
2020/12/14 07:45:23;;;;;;;70.55;33.20;;;1.40;99.90;;;;;;5044614;28;20053;-73
2020/12/14 07:47:52;;;;;;;72.68;34.05;;;1.40;99.90;;;;;;5044086;28;20892;-75
2020/12/14 07:50:22;;;;;;;66.78;32.47;;;1.40;99.90;;;;;;5041563;28;20048;-73
2020/12/14 07:52:53;;;;;;;72.30;34.42;;;1.50;99.90;;;;;;5044258;28;20053;-72
2020/12/14 07:55:21;;;;;;;69.03;32.03;;;1.50;99.90;;;;;;5045724;28;20780;-73
2020/12/14 07:57:49;;;;;;;67.25;33.03;;;1.60;99.90;;;;;;5046846;28;20119;-72
2020/12/14 08:00:21;;;;;;;66.25;33.28;;;1.60;99.90;;;;;;5037126;28;20087;-73
2020/12/14 08:02:49;;;;;;;67.13;35.00;;;1.60;99.90;;;;;;5039521;28;20052;-74
2020/12/14 08:05:20;;;;;;;64.65;32.88;;;1.70;99.90;;;;;;5042628;28;20377;-74
2020/12/14 08:07:48;;;;;;;69.75;34.58;;;1.70;99.90;;;;;;5041069;28;20041;-74
2020/12/14 08:10:32;;;;;;;68.07;32.97;;;1.70;99.90;;;;;;5034934;28;20132;-73
2020/12/14 08:13:02;;;;;;;62.55;32.90;;;1.70;99.90;;;;;;5041582;28;20534;-73
2020/12/14 08:15:31;;;;;;;61.42;33.08;;;1.70;99.90;;;;;;5037682;28;20049;-74
2020/12/14 08:18:05;;;;;;;64.40;33.55;;;1.80;99.90;;;;;;5039913;28;20152;-74
2020/12/14 08:20:42;;;;;;;67.55;33.67;;;2.00;99.90;;;;;;5045602;28;20511;-73
2020/12/14 08:23:21;;;;;;;67.90;34.30;;;2.20;99.90;;;;;;5044298;28;20433;-74
2020/12/14 08:25:49;;;;;;;85.35;40.67;;;2.30;99.90;;;;;;5031638;28;20040;-74
2020/12/14 08:28:26;;;;;;;106.50;46.13;;;2.40;99.90;;;;;;5041847;28;20468;-74
2020/12/14 08:30:54;;;;;;;98.80;43.33;;;2.50;99.90;;;;;;5044683;28;20137;-74
2020/12/14 08:33:26;;;;;;;90.70;45.13;;;2.60;99.90;;;;;;5040666;28;20059;-74
2020/12/14 08:36:09;;;;;;;65.03;31.85;;;2.80;99.90;;;;;;5042761;28;20051;-74
2020/12/14 08:38:37;;;;;;;50.75;28.70;;;2.60;99.90;;;;;;5044509;28;20056;-74
2020/12/14 08:41:07;;;;;;;52.63;28.05;;;2.50;99.90;;;;;;5040284;28;20462;-75
2020/12/14 08:43:41;;;;;;;33.38;20.63;;;2.40;99.90;;;;;;5045061;28;20053;-74
2020/12/14 08:46:18;;;;;;;42.50;24.45;;;2.50;99.90;;;;;;5037701;28;20061;-75
2020/12/14 08:48:48;;;;;;;48.72;25.08;;;2.60;99.90;;;;;;5036286;28;20495;-74
2020/12/14 08:51:28;;;;;;;36.60;21.67;;;2.70;99.90;;;;;;5039292;28;20489;-74
2020/12/14 08:54:09;;;;;;;36.85;22.08;;;2.90;99.90;;;;;;5039985;28;20420;-78
2020/12/14 08:56:36;;;;;;;35.92;21.58;;;3.20;99.90;;;;;;5037701;28;21139;-73
2020/12/14 08:59:03;;;;;;;31.00;20.50;;;3.40;99.90;;;;;;5042884;28;20057;-76
2020/12/14 09:01:32;;;;;;;30.10;19.30;;;3.50;99.90;;;;;;5042330;28;20495;-76
2020/12/14 09:04:05;;;;;;;28.88;19.20;;;3.70;99.90;;;;;;5037600;28;20053;-78
2020/12/14 09:06:35;;;;;;;26.80;17.48;;;3.90;99.90;;;;;;5042643;28;20057;-75
2020/12/14 09:09:05;;;;;;;27.35;18.73;;;4.10;99.90;;;;;;5029756;28;20084;-76
2020/12/14 09:11:34;;;;;;;23.92;15.15;;;4.20;99.90;;;;;;5036410;28;20056;-74
2020/12/14 09:14:04;;;;;;;21.52;15.00;;;4.40;99.90;;;;;;5037690;28;20094;-75
2020/12/14 09:16:31;;;;;;;22.58;14.95;;;4.40;99.90;;;;;;5039537;28;20041;-73
2020/12/14 09:18:58;;;;;;;21.13;14.05;;;4.40;99.90;;;;;;5036239;28;20044;-75
2020/12/14 09:21:25;;;;;;;20.30;14.25;;;4.60;99.90;;;;;;5042447;28;20047;-74
2020/12/14 09:24:26;;;;;;;18.60;13.15;;;4.70;99.90;;;;;;5038258;28;20041;-73
2020/12/14 09:27:00;;;;;;;18.95;12.45;;;4.70;99.90;;;;;;5044548;28;20135;-74
2020/12/14 09:29:27;;;;;;;15.85;11.88;;;4.90;99.90;;;;;;5037410;28;20049;-75
2020/12/14 09:31:56;;;;;;;16.92;11.57;;;6.00;99.90;;;;;;5045751;28;20049;-74
2020/12/14 09:34:23;;;;;;;13.77;10.00;;;7.40;99.90;;;;;;5041782;28;20083;-74
2020/12/14 09:36:53;;;;;;;11.60;9.43;;;8.40;99.90;;;;;;5044945;28;20065;-73
2020/12/14 09:39:22;;;;;;;11.50;9.65;;;9.30;99.90;;;;;;5043850;28;20084;-73
2020/12/14 09:41:49;;;;;;;11.85;8.68;;;9.60;99.90;;;;;;5034456;28;20073;-73
2020/12/14 09:44:16;;;;;;;11.02;8.88;;;9.80;99.90;;;;;;5036297;28;20053;-73
2020/12/14 09:46:43;;;;;;;10.30;7.82;;;10.10;97.70;;;;;;5032837;28;20358;-73
2020/12/14 09:49:10;;;;;;;12.70;9.05;;;10.60;96.10;;;;;;5044313;28;20084;-73
2020/12/14 09:51:37;;;;;;;9.05;7.68;;;11.10;90.90;;;;;;5033439;28;20048;-75
2020/12/14 09:54:05;;;;;;;10.38;7.60;;;11.50;87.30;;;;;;5041730;28;20049;-74
2020/12/14 09:56:33;;;;;;;13.57;7.70;;;11.80;86.10;;;;;;5045718;28;20055;-74
2020/12/14 09:59:01;;;;;;;10.90;7.22;;;11.90;85.20;;;;;;5042788;28;20106;-76
2020/12/14 10:01:29;;;;;;;7.38;6.32;;;12.50;79.10;;;;;;5038932;28;20563;-72
2020/12/14 10:04:00;;;;;;;6.35;5.68;;;12.60;76.60;;;;;;5041926;28;20049;-76
2020/12/14 10:06:28;;;;;;;6.93;5.85;;;13.00;73.80;;;;;;5042393;28;20048;-73
2020/12/14 10:08:55;;;;;;;7.28;5.78;;;13.40;72.30;;;;;;5038588;28;20145;-74
2020/12/14 10:11:29;;;;;;;7.03;5.97;;;13.50;69.60;;;;;;5038112;28;20069;-73
2020/12/14 10:13:57;;;;;;;8.30;5.53;;;12.90;72.10;;;;;;5032366;28;20061;-76
2020/12/14 10:16:24;;;;;;;6.72;5.75;;;12.00;73.20;;;;;;5049505;28;20172;-75
2020/12/14 10:18:52;;;;;;;9.68;7.13;;;11.20;78.50;;;;;;5040789;28;20047;-75
2020/12/14 10:21:18;;;;;;;8.52;6.50;;;10.20;87.40;;;;;;5033827;28;20045;-74
2020/12/14 10:23:45;;;;;;;9.73;6.85;;;9.60;91.60;;;;;;5038024;28;20049;-73
2020/12/14 10:26:13;;;;;;;9.70;6.80;;;9.10;95.60;;;;;;5038661;28;20405;-74
2020/12/14 10:28:40;;;;;;;9.38;6.70;;;8.80;98.70;;;;;;5043450;28;20045;-73
2020/12/14 10:31:08;;;;;;;8.10;6.20;;;8.50;99.90;;;;;;5040335;28;20045;-74
2020/12/14 10:33:38;;;;;;;9.27;7.10;;;8.30;99.90;;;;;;5045937;28;20139;-74
2020/12/14 10:36:11;;;;;;;10.18;7.05;;;8.50;99.90;;;;;;5042029;28;20527;-74
2020/12/14 10:38:38;;;;;;;8.82;6.47;;;8.40;99.90;;;;;;5047698;28;20148;-73
2020/12/14 10:41:05;;;;;;;10.65;6.55;;;8.60;99.90;;;;;;5045475;28;20056;-74
2020/12/14 10:43:32;;;;;;;7.03;5.70;;;8.60;99.90;;;;;;5043525;28;20393;-74
2020/12/14 10:45:59;;;;;;;9.63;5.72;;;8.70;99.90;;;;;;5046013;28;20041;-73
2020/12/14 10:48:28;;;;;;;8.15;5.30;;;8.80;99.90;;;;;;5048670;28;20122;-74
2020/12/14 10:50:56;;;;;;;10.60;6.38;;;9.00;99.90;;;;;;5045471;28;20115;-74
2020/12/14 10:53:22;;;;;;;7.80;5.60;;;8.90;99.90;;;;;;5048816;28;20052;-73
2020/12/14 10:55:50;;;;;;;7.47;5.32;;;8.70;98.00;;;;;;5041198;28;20368;-73
2020/12/14 10:58:18;;;;;;;6.28;4.97;;;8.60;99.00;;;;;;5039088;28;20488;-74
2020/12/14 11:00:44;;;;;;;7.13;5.32;;;8.70;99.90;;;;;;5043160;28;20045;-73
2020/12/14 11:03:11;;;;;;;7.65;5.90;;;9.00;99.90;;;;;;5047350;28;20049;-73
2020/12/14 11:05:37;;;;;;;8.98;6.03;;;9.20;99.90;;;;;;5044263;28;20062;-74
2020/12/14 11:08:04;;;;;;;7.70;6.10;;;9.30;98.40;;;;;;5042584;28;20036;-73
2020/12/14 11:10:31;;;;;;;9.32;5.88;;;9.50;97.90;;;;;;5038469;28;20099;-74
2020/12/14 11:12:57;;;;;;;6.90;5.43;;;9.90;94.00;;;;;;5043123;28;20073;-75
2020/12/14 11:15:24;;;;;;;8.18;5.18;;;10.30;93.10;;;;;;5041639;28;20146;-74
2020/12/14 11:17:50;;;;;;;7.68;5.47;;;10.40;91.70;;;;;;5039814;28;20095;-73
2020/12/14 11:20:17;;;;;;;7.43;5.20;;;10.50;92.60;;;;;;5038193;28;20334;-75
2020/12/14 11:22:43;;;;;;;10.02;6.90;;;10.30;93.30;;;;;;5033383;28;20049;-76
2020/12/14 11:25:10;;;;;;;12.50;6.32;;;10.40;93.80;;;;;;5043371;28;20544;-76
2020/12/14 11:27:37;;;;;;;8.07;6.30;;;10.80;92.70;;;;;;5048285;28;20511;-75
2020/12/14 11:30:05;;;;;;;7.78;5.63;;;11.00;90.50;;;;;;5045454;28;20401;-76
2020/12/14 11:32:32;;;;;;;5.82;4.35;;;11.30;88.90;;;;;;5047218;28;20091;-73
2020/12/14 11:35:02;;;;;;;6.40;5.00;;;11.50;87.40;;;;;;5048919;28;20071;-75
2020/12/14 11:37:29;;;;;;;6.75;4.82;;;11.50;88.90;;;;;;5050556;28;20053;-73
2020/12/14 11:39:55;;;;;;;7.35;4.93;;;11.30;88.50;;;;;;5047171;28;20060;-73
2020/12/14 11:42:22;;;;;;;5.63;4.55;;;11.20;87.50;;;;;;5047513;28;20063;-73
2020/12/14 11:44:49;;;;;;;6.75;5.35;;;10.80;90.20;;;;;;5050674;28;20055;-74
2020/12/14 11:47:19;;;;;;;8.25;5.70;;;10.60;90.90;;;;;;5050299;28;20123;-74
2020/12/14 11:49:47;;;;;;;10.02;5.07;;;10.40;91.30;;;;;;5040882;28;20045;-74
2020/12/14 11:52:14;;;;;;;6.88;4.70;;;10.40;93.20;;;;;;5045129;28;20163;-74
2020/12/14 11:54:40;;;;;;;11.60;6.85;;;10.20;94.40;;;;;;5049381;28;20077;-74
2020/12/14 11:57:13;;;;;;;8.20;5.88;;;10.20;94.60;;;;;;5049259;28;20521;-75
2020/12/14 11:59:40;;;;;;;6.32;4.50;;;10.30;94.00;;;;;;5050040;28;20059;-74
2020/12/14 12:02:13;;;;;;;6.28;4.70;;;10.50;93.10;;;;;;5043776;28;20549;-74
2020/12/14 12:04:42;;;;;;;6.63;3.72;;;10.90;92.40;;;;;;5035500;28;20052;-75
2020/12/14 12:07:14;;;;;;;6.97;5.00;;;11.10;88.70;;;;;;5047599;28;20142;-74
2020/12/14 12:09:46;;;;;;;5.20;3.97;;;11.70;86.00;;;;;;5047372;28;20056;-73
2020/12/14 12:12:16;;;;;;;5.57;3.70;;;12.40;79.40;;;;;;5028396;28;20115;-74
2020/12/14 12:14:43;;;;;;;5.55;3.50;;;13.90;72.40;;;;;;5048356;28;20099;-74
2020/12/14 12:17:11;;;;;;;5.78;3.05;;;14.60;67.30;;;;;;5049829;28;20045;-75
2020/12/14 12:19:38;;;;;;;4.75;3.20;;;14.70;66.50;;;;;;5037918;28;20511;-77
2020/12/14 12:22:06;;;;;;;6.93;3.35;;;14.70;63.30;;;;;;5031361;28;20050;-74
2020/12/14 12:24:36;;;;;;;6.43;3.17;;;14.70;65.20;;;;;;5038605;28;20049;-73
2020/12/14 12:27:05;;;;;;;4.15;2.70;;;15.30;63.70;;;;;;5047772;28;20041;-74
2020/12/14 12:29:34;;;;;;;4.82;2.92;;;16.30;60.20;;;;;;5039811;28;20049;-76
2020/12/14 12:32:00;;;;;;;4.05;2.40;;;17.90;59.20;;;;;;5046602;28;20408;-74
2020/12/14 12:34:34;;;;;;;4.57;2.30;;;19.80;52.40;;;;;;5041101;28;20049;-77
2020/12/14 12:37:02;;;;;;;3.58;2.53;;;20.20;49.80;;;;;;5048360;28;20056;-74
2020/12/14 12:39:29;;;;;;;4.07;2.83;;;18.30;50.60;;;;;;5042630;28;20077;-74
2020/12/14 12:41:57;;;;;;;4.15;2.60;;;17.20;54.40;;;;;;5043969;28;20056;-74
2020/12/14 12:44:24;;;;;;;4.65;2.60;;;16.10;56.50;;;;;;5043222;28;20045;-73
2020/12/14 12:46:50;;;;;;;5.78;2.65;;;14.90;58.60;;;;;;5047951;28;20053;-73
2020/12/14 12:49:17;;;;;;;3.72;2.45;;;14.40;61.00;;;;;;5041520;28;20053;-74
2020/12/14 12:51:49;;;;;;;3.83;2.20;;;14.30;61.00;;;;;;5045773;28;20055;-74